createdAt,value
2023-01-18T00:01:02.135Z,1.44
2023-01-18T00:03:33.399Z,1.50
2023-01-18T00:06:01.894Z,1.37
2023-01-18T00:08:29.696Z,1.40
2023-01-18T00:11:04.873Z,1.50
2023-01-18T00:13:32.453Z,1.47
2023-01-18T00:16:03.563Z,1.36
2023-01-18T00:18:31.085Z,1.42
2023-01-18T00:21:01.080Z,1.28
2023-01-18T00:23:28.672Z,1.46
2023-01-18T00:26:00.246Z,1.41
2023-01-18T00:28:29.247Z,1.39
2023-01-18T00:30:56.829Z,1.34
2023-01-18T00:33:24.294Z,1.35
2023-01-18T00:35:58.044Z,1.27
2023-01-18T00:38:25.547Z,0.88
2023-01-18T00:40:53.099Z,1.24
2023-01-18T00:43:38.094Z,1.18
2023-01-18T00:46:07.208Z,1.12
2023-01-18T00:48:35.006Z,1.15
2023-01-18T00:51:02.553Z,1.40
2023-01-18T00:53:30.120Z,1.08
2023-01-18T00:55:57.595Z,1.34
2023-01-18T00:58:25.090Z,1.40
2023-01-18T01:00:53.075Z,0.90
2023-01-18T01:03:22.027Z,0.96
2023-01-18T01:06:07.080Z,0.79
2023-01-18T01:08:34.820Z,1.15
2023-01-18T01:11:06.116Z,1.33
2023-01-18T01:13:51.227Z,1.23
2023-01-18T01:16:36.049Z,1.05
2023-01-18T01:19:22.228Z,0.97
2023-01-18T01:22:07.047Z,1.01
2023-01-18T01:24:51.965Z,1.08
2023-01-18T01:27:19.447Z,0.88
2023-01-18T01:29:46.968Z,1.02
2023-01-18T01:32:14.526Z,0.67
2023-01-18T01:34:43.368Z,0.59
2023-01-18T01:37:10.880Z,0.99
2023-01-18T01:39:38.440Z,1.11
2023-01-18T01:42:05.949Z,0.93
2023-01-18T01:44:54.331Z,0.94
2023-01-18T01:47:26.206Z,1.09
2023-01-18T01:49:56.197Z,0.79
2023-01-18T01:52:24.606Z,1.01
2023-01-18T01:54:54.112Z,1.00
2023-01-18T01:57:22.155Z,0.94
2023-01-18T01:59:50.643Z,0.98
2023-01-18T02:02:18.205Z,1.04
2023-01-18T02:04:46.503Z,1.05
2023-01-18T02:07:15.428Z,1.05
2023-01-18T02:09:42.905Z,0.80
2023-01-18T02:12:10.420Z,1.02
2023-01-18T02:14:37.942Z,1.07
2023-01-18T02:17:08.616Z,1.03
2023-01-18T02:19:45.223Z,0.82
2023-01-18T02:22:14.778Z,0.93
2023-01-18T02:24:48.990Z,0.93
2023-01-18T02:27:18.746Z,1.09
2023-01-18T02:29:56.690Z,0.97
2023-01-18T02:32:27.165Z,1.05
2023-01-18T02:34:56.673Z,0.74
2023-01-18T02:37:26.673Z,0.75
2023-01-18T02:39:58.936Z,0.90
2023-01-18T02:42:46.280Z,0.87
2023-01-18T02:45:35.891Z,0.80
2023-01-18T02:48:03.663Z,0.81
2023-01-18T02:50:31.209Z,0.75
2023-01-18T02:52:59.158Z,0.67
2023-01-18T02:55:30.198Z,0.87
2023-01-18T02:57:58.145Z,0.95
2023-01-18T03:00:27.038Z,0.74
2023-01-18T03:02:54.593Z,0.80
2023-01-18T03:05:22.477Z,0.98
2023-01-18T03:07:51.891Z,0.84
2023-01-18T03:10:19.418Z,0.74
2023-01-18T03:12:48.946Z,0.83
2023-01-18T03:15:18.911Z,0.88
2023-01-18T03:17:49.193Z,1.01
2023-01-18T03:20:17.127Z,1.02
2023-01-18T03:23:04.020Z,0.93
2023-01-18T03:25:32.659Z,0.85
2023-01-18T03:28:18.161Z,1.09
2023-01-18T03:31:02.897Z,0.89
2023-01-18T03:33:47.203Z,0.97
2023-01-18T03:36:17.586Z,0.92
2023-01-18T03:38:45.579Z,0.94
2023-01-18T03:41:13.076Z,0.88
2023-01-18T03:43:40.881Z,0.88
2023-01-18T03:46:09.015Z,0.42
2023-01-18T03:48:37.900Z,0.44
2023-01-18T03:51:08.209Z,0.73
2023-01-18T03:53:39.103Z,0.87
2023-01-18T03:56:07.894Z,0.94
2023-01-18T03:58:36.283Z,0.83
2023-01-18T04:01:04.899Z,0.80
2023-01-18T04:03:32.731Z,0.70
2023-01-18T04:06:01.811Z,0.79
2023-01-18T04:08:29.326Z,0.84
2023-01-18T04:10:56.911Z,0.70
2023-01-18T04:13:24.400Z,0.90
2023-01-18T04:15:51.908Z,0.88
2023-01-18T04:18:19.402Z,0.87
2023-01-18T04:20:46.889Z,0.76
2023-01-18T04:23:15.705Z,0.72
2023-01-18T04:25:49.968Z,0.73
2023-01-18T04:28:25.441Z,0.74
2023-01-18T04:30:53.412Z,0.73
2023-01-18T04:33:21.607Z,0.79
2023-01-18T04:35:49.165Z,0.84
2023-01-18T04:38:18.061Z,0.78
2023-01-18T04:40:45.563Z,0.66
2023-01-18T04:43:13.114Z,0.59
2023-01-18T04:45:40.732Z,0.90
2023-01-18T04:48:08.285Z,0.59
2023-01-18T04:50:35.843Z,0.78
2023-01-18T04:53:03.369Z,0.56
2023-01-18T04:55:32.197Z,0.52
2023-01-18T04:58:01.076Z,0.73
2023-01-18T05:00:28.681Z,0.74
2023-01-18T05:02:56.459Z,0.63
2023-01-18T05:05:24.099Z,0.77
2023-01-18T05:07:51.557Z,0.47
2023-01-18T05:10:19.027Z,0.73
2023-01-18T05:12:47.878Z,0.74
2023-01-18T05:15:15.522Z,0.62
2023-01-18T05:17:43.811Z,0.72
2023-01-18T05:20:11.969Z,0.69
2023-01-18T05:22:39.463Z,0.49
2023-01-18T05:25:07.237Z,0.47
2023-01-18T05:27:34.784Z,0.53
2023-01-18T05:30:05.888Z,0.59
2023-01-18T05:32:34.211Z,0.47
2023-01-18T05:35:01.700Z,0.57
2023-01-18T05:37:29.226Z,0.23
2023-01-18T05:39:56.705Z,0.22
2023-01-18T05:42:24.197Z,0.44
2023-01-18T05:44:51.649Z,0.48
2023-01-18T05:47:20.480Z,0.26
2023-01-18T05:49:48.034Z,0.37
2023-01-18T05:52:15.666Z,0.62
2023-01-18T05:54:43.166Z,0.55
2023-01-18T05:57:10.943Z,0.56
2023-01-18T05:59:38.451Z,0.66
2023-01-18T06:02:06.059Z,0.54
2023-01-18T06:04:35.005Z,0.38
2023-01-18T06:07:02.535Z,0.31
2023-01-18T06:09:30.316Z,0.52
2023-01-18T06:11:57.855Z,0.49
2023-01-18T06:14:25.391Z,0.28
2023-01-18T06:16:52.915Z,0.38
2023-01-18T06:19:20.432Z,0.30
2023-01-18T06:21:49.323Z,0.61
2023-01-18T06:24:16.847Z,0.64
2023-01-18T06:26:44.391Z,0.54
2023-01-18T06:29:11.884Z,0.76
2023-01-18T06:31:39.418Z,0.61
2023-01-18T06:34:09.386Z,0.64
2023-01-18T06:36:37.065Z,0.78
2023-01-18T06:39:06.018Z,0.64
2023-01-18T06:41:33.566Z,0.51
2023-01-18T06:44:01.051Z,0.76
2023-01-18T06:46:28.697Z,0.56
2023-01-18T06:48:56.362Z,0.47
2023-01-18T06:51:24.132Z,0.82
2023-01-18T06:53:51.793Z,0.70
2023-01-18T06:56:20.856Z,0.75
2023-01-18T06:58:48.517Z,0.62
2023-01-18T07:01:16.269Z,0.80
2023-01-18T07:03:44.088Z,0.95
2023-01-18T07:06:12.108Z,0.91
2023-01-18T07:08:40.154Z,0.81
2023-01-18T07:11:09.446Z,0.97
2023-01-18T07:13:40.170Z,0.83
2023-01-18T07:16:09.269Z,0.27
2023-01-18T07:18:36.906Z,0.66
2023-01-18T07:21:07.084Z,0.31
2023-01-18T07:23:36.190Z,0.74
2023-01-18T07:26:04.379Z,1.12
2023-01-18T07:28:32.804Z,1.07
2023-01-18T07:31:02.296Z,1.02
2023-01-18T07:33:30.880Z,0.68
2023-01-18T07:35:58.872Z,0.94
2023-01-18T07:38:27.176Z,1.00
2023-01-18T07:41:02.225Z,0.80
2023-01-18T07:43:30.624Z,0.75
2023-01-18T07:45:59.095Z,0.83
2023-01-18T07:48:29.167Z,0.47
2023-01-18T07:50:57.609Z,0.61
2023-01-18T07:53:26.109Z,0.60
2023-01-18T07:55:54.346Z,0.79
2023-01-18T07:58:22.339Z,0.49
2023-01-18T08:00:50.100Z,0.32
2023-01-18T08:03:19.113Z,0.73
2023-01-18T08:05:48.443Z,0.75
2023-01-18T08:08:17.561Z,0.88
2023-01-18T08:10:46.087Z,1.01
2023-01-18T08:13:13.813Z,1.07
2023-01-18T08:15:41.610Z,0.81
2023-01-18T08:18:09.609Z,1.23
2023-01-18T08:20:37.305Z,0.93
2023-01-18T08:23:06.354Z,1.12
2023-01-18T08:25:34.033Z,1.02
2023-01-18T08:28:03.172Z,1.09
2023-01-18T08:30:32.413Z,1.37
2023-01-18T08:33:02.016Z,1.12
2023-01-18T08:35:31.839Z,1.01
2023-01-18T08:38:00.584Z,1.45
2023-01-18T08:40:30.162Z,1.09
2023-01-18T08:42:58.923Z,1.55
2023-01-18T08:45:27.278Z,1.85
2023-01-18T08:47:58.662Z,1.70
2023-01-18T08:50:26.407Z,1.48
2023-01-18T08:52:54.396Z,1.82
2023-01-18T08:55:22.747Z,1.79
2023-01-18T08:57:54.961Z,1.85
2023-01-18T09:00:26.757Z,1.88
2023-01-18T09:02:54.737Z,2.11
2023-01-18T09:05:22.524Z,1.72
2023-01-18T09:07:50.956Z,2.00
2023-01-18T09:10:21.245Z,1.88
2023-01-18T09:12:48.990Z,1.47
2023-01-18T09:15:18.850Z,2.11
2023-01-18T09:17:46.575Z,1.91
2023-01-18T09:20:14.854Z,2.09
2023-01-18T09:22:44.528Z,2.14
2023-01-18T09:25:12.248Z,2.38
2023-01-18T09:27:39.926Z,2.67
2023-01-18T09:30:09.524Z,2.67
2023-01-18T09:32:39.311Z,2.73
2023-01-18T09:35:08.610Z,2.84
2023-01-18T09:37:36.307Z,2.65
2023-01-18T09:40:04.143Z,2.54
2023-01-18T09:42:37.180Z,2.71
2023-01-18T09:45:05.648Z,2.58
2023-01-18T09:47:36.744Z,3.05
2023-01-18T09:50:10.877Z,2.58
2023-01-18T09:52:44.458Z,2.78
2023-01-18T09:55:17.979Z,2.76
2023-01-18T09:58:03.202Z,2.99
2023-01-18T10:00:32.781Z,2.94
2023-01-18T10:03:04.030Z,2.78
2023-01-18T10:05:36.602Z,2.56
2023-01-18T10:08:07.969Z,2.97
2023-01-18T10:10:38.768Z,2.76
2023-01-18T10:13:37.876Z,2.99
2023-01-18T10:16:05.891Z,3.61
2023-01-18T10:18:39.193Z,3.83
2023-01-18T10:21:09.046Z,3.75
2023-01-18T10:23:42.385Z,3.90
2023-01-18T10:26:16.682Z,3.62
2023-01-18T10:28:50.670Z,3.82
2023-01-18T10:31:27.558Z,3.66
2023-01-18T10:33:57.823Z,4.00
2023-01-18T10:36:32.508Z,3.85
2023-01-18T10:39:04.213Z,3.77
2023-01-18T10:41:36.117Z,4.00
2023-01-18T10:44:03.849Z,3.99
2023-01-18T10:46:32.087Z,3.71
2023-01-18T10:48:59.849Z,4.10
2023-01-18T10:51:35.263Z,3.77
2023-01-18T10:54:23.119Z,4.02
2023-01-18T10:56:50.940Z,3.95
2023-01-18T10:59:26.625Z,4.23
2023-01-18T11:01:56.971Z,4.23
2023-01-18T11:04:28.170Z,4.09
2023-01-18T11:06:59.676Z,4.63
2023-01-18T11:09:41.935Z,4.36
2023-01-18T11:12:37.245Z,4.64
2023-01-18T11:15:25.794Z,4.34
2023-01-18T11:18:11.925Z,4.56
2023-01-18T11:20:48.085Z,4.41
2023-01-18T11:23:21.116Z,4.37
2023-01-18T11:25:53.572Z,4.45
2023-01-18T11:28:23.523Z,4.83
2023-01-18T11:30:54.315Z,4.74
2023-01-18T11:33:23.295Z,3.95
2023-01-18T11:35:55.654Z,4.76
2023-01-18T11:38:28.498Z,4.87
2023-01-18T11:41:15.358Z,4.41
2023-01-18T11:43:48.229Z,5.17
2023-01-18T11:46:30.315Z,4.92
2023-01-18T11:49:02.891Z,5.10
2023-01-18T11:51:34.295Z,4.89
2023-01-18T11:54:10.908Z,4.33
2023-01-18T11:56:43.740Z,5.31
2023-01-18T11:59:14.950Z,5.21
2023-01-18T12:02:05.729Z,5.00
2023-01-18T12:04:44.559Z,4.89
2023-01-18T12:07:21.859Z,5.40
2023-01-18T12:09:53.167Z,5.33
2023-01-18T12:12:30.227Z,4.75
2023-01-18T12:15:09.126Z,4.70
2023-01-18T12:17:48.455Z,4.75
2023-01-18T12:20:25.785Z,5.41
2023-01-18T12:23:11.905Z,5.91
2023-01-18T12:26:06.998Z,5.42
2023-01-18T12:28:50.503Z,5.01
2023-01-18T12:31:25.898Z,5.15
2023-01-18T12:33:58.518Z,5.49
2023-01-18T12:36:38.681Z,5.63
2023-01-18T12:39:12.093Z,4.93
2023-01-18T12:41:45.794Z,5.24
2023-01-18T12:44:34.702Z,5.53
2023-01-18T12:47:10.643Z,5.11
2023-01-18T12:49:41.433Z,5.49
2023-01-18T12:52:18.684Z,5.47
2023-01-18T12:54:48.635Z,5.64
2023-01-18T12:57:18.403Z,5.48
2023-01-18T12:59:48.880Z,5.41
2023-01-18T13:02:25.203Z,5.72
2023-01-18T13:04:55.267Z,5.69
2023-01-18T13:07:27.798Z,5.93
2023-01-18T13:09:55.904Z,6.25
2023-01-18T13:12:25.450Z,5.95
2023-01-18T13:14:57.671Z,5.30
2023-01-18T13:17:28.562Z,5.92
2023-01-18T13:20:00.400Z,5.91
2023-01-18T13:22:35.080Z,5.75
2023-01-18T13:25:23.046Z,6.07
2023-01-18T13:28:02.089Z,6.41
2023-01-18T13:30:31.945Z,5.35
2023-01-18T13:33:00.372Z,5.87
2023-01-18T13:35:33.245Z,5.60
2023-01-18T13:38:02.340Z,5.62
2023-01-18T13:40:42.727Z,5.76
2023-01-18T13:43:34.007Z,5.86
2023-01-18T13:46:03.904Z,5.99
2023-01-18T13:48:50.961Z,6.15
2023-01-18T13:51:57.328Z,5.92
2023-01-18T13:55:02.358Z,6.18
2023-01-18T13:57:31.676Z,6.43
2023-01-18T14:00:02.295Z,5.76
2023-01-18T14:02:33.970Z,5.83
2023-01-18T14:05:08.851Z,5.89
2023-01-18T14:07:42.815Z,6.00
2023-01-18T14:10:38.139Z,6.26
2023-01-18T14:13:07.256Z,6.07
2023-01-18T14:15:53.267Z,5.87
2023-01-18T14:18:26.200Z,6.29
2023-01-18T14:21:12.392Z,6.03
2023-01-18T14:24:12.610Z,5.76
2023-01-18T14:26:41.939Z,6.14
2023-01-18T14:29:13.109Z,5.37
2023-01-18T14:31:45.095Z,6.02
2023-01-18T14:34:30.498Z,6.03
2023-01-18T14:36:58.579Z,5.62
2023-01-18T14:39:28.758Z,5.91
2023-01-18T14:41:58.679Z,5.51
2023-01-18T14:44:30.023Z,5.18
2023-01-18T14:46:59.161Z,5.54
2023-01-18T14:49:28.990Z,5.86
2023-01-18T14:51:57.126Z,5.85
2023-01-18T14:54:25.983Z,5.44
2023-01-18T14:57:01.290Z,5.73
2023-01-18T14:59:30.996Z,5.25
2023-01-18T15:02:01.500Z,5.14
2023-01-18T15:04:30.685Z,5.36
2023-01-18T15:07:00.092Z,5.15
2023-01-18T15:09:28.405Z,5.55
2023-01-18T15:11:57.969Z,5.44
2023-01-18T15:14:27.155Z,5.20
2023-01-18T15:16:56.904Z,5.54
2023-01-18T15:19:30.843Z,5.30
2023-01-18T15:22:00.289Z,5.32
2023-01-18T15:24:29.284Z,4.93
2023-01-18T15:26:58.506Z,5.34
2023-01-18T15:29:28.102Z,5.02
2023-01-18T15:31:57.530Z,5.15
2023-01-18T15:34:29.335Z,5.45
2023-01-18T15:36:58.478Z,5.37
2023-01-18T15:39:26.845Z,5.07
2023-01-18T15:41:56.406Z,4.71
2023-01-18T15:44:33.315Z,4.86
2023-01-18T15:47:01.303Z,5.21
2023-01-18T15:49:30.526Z,4.92
2023-01-18T15:51:58.198Z,4.95
2023-01-18T15:54:28.084Z,4.91
2023-01-18T15:56:58.808Z,4.61
2023-01-18T15:59:28.166Z,4.88
2023-01-18T16:02:05.755Z,4.36
2023-01-18T16:04:35.038Z,4.54
2023-01-18T16:07:35.976Z,4.65
2023-01-18T16:10:27.735Z,4.73
2023-01-18T16:12:57.018Z,4.67
2023-01-18T16:15:26.607Z,4.43
2023-01-18T16:17:57.993Z,4.49
2023-01-18T16:20:27.247Z,4.40
2023-01-18T16:22:56.126Z,4.37
2023-01-18T16:25:24.820Z,4.35
2023-01-18T16:27:54.267Z,4.10
2023-01-18T16:30:24.692Z,4.50
2023-01-18T16:32:52.671Z,4.24
2023-01-18T16:35:22.553Z,4.04
2023-01-18T16:37:52.059Z,4.23
2023-01-18T16:40:21.662Z,4.04
2023-01-18T16:42:57.273Z,3.83
2023-01-18T16:45:24.987Z,3.74
2023-01-18T16:47:52.909Z,4.05
2023-01-18T16:50:20.734Z,4.20
2023-01-18T16:52:48.450Z,3.99
2023-01-18T16:55:18.111Z,3.82
2023-01-18T16:57:46.411Z,4.22
2023-01-18T17:00:19.244Z,4.17
2023-01-18T17:02:47.107Z,4.16
2023-01-18T17:05:15.736Z,4.28
2023-01-18T17:07:43.564Z,4.48
2023-01-18T17:10:23.491Z,4.43
2023-01-18T17:12:51.166Z,4.41
2023-01-18T17:15:20.150Z,4.63
2023-01-18T17:17:48.064Z,4.54
2023-01-18T17:20:18.341Z,4.33
2023-01-18T17:22:46.115Z,4.51
2023-01-18T17:25:14.087Z,4.62
2023-01-18T17:27:43.216Z,4.70
2023-01-18T17:30:13.349Z,4.72
2023-01-18T17:32:41.050Z,4.92
2023-01-18T17:35:09.503Z,4.68
2023-01-18T17:40:17.219Z,4.45
2023-01-18T17:42:53.255Z,4.45
2023-01-18T17:45:21.285Z,4.96
2023-01-18T17:47:48.950Z,4.88
2023-01-18T17:50:22.880Z,5.03
2023-01-18T17:52:50.558Z,4.83
2023-01-18T17:55:24.299Z,4.57
2023-01-18T17:57:56.588Z,5.35
2023-01-18T18:00:24.276Z,4.86
2023-01-18T18:02:52.701Z,5.07
2023-01-18T18:05:20.833Z,4.56
2023-01-18T18:07:49.536Z,4.54
2023-01-18T18:10:17.885Z,4.91
2023-01-18T18:12:45.707Z,4.71
2023-01-18T18:15:14.719Z,4.92
2023-01-18T18:17:42.574Z,4.66
2023-01-18T18:20:11.392Z,4.33
2023-01-18T18:22:39.478Z,4.91
2023-01-18T18:25:08.105Z,4.59
2023-01-18T18:27:51.472Z,4.57
2023-01-18T18:30:20.653Z,4.46
2023-01-18T18:32:48.770Z,4.78
2023-01-18T18:35:25.527Z,4.51
2023-01-18T18:37:55.378Z,4.31
2023-01-18T18:40:23.290Z,4.74
2023-01-18T18:43:01.755Z,4.82
2023-01-18T18:45:32.427Z,3.85
2023-01-18T18:48:00.520Z,4.65
2023-01-18T18:50:28.438Z,4.12
2023-01-18T18:52:56.218Z,4.71
2023-01-18T18:55:24.498Z,4.56
2023-01-18T18:57:52.196Z,4.63
2023-01-18T19:00:20.787Z,4.54
2023-01-18T19:02:49.877Z,4.71
2023-01-18T19:05:17.797Z,4.68
2023-01-18T19:07:47.028Z,4.61
2023-01-18T19:10:14.736Z,4.50
2023-01-18T19:12:42.459Z,4.62
2023-01-18T19:15:10.541Z,5.10
2023-01-18T19:17:38.244Z,4.61
2023-01-18T19:20:09.948Z,4.43
2023-01-18T19:22:38.444Z,4.16
2023-01-18T19:25:07.200Z,4.46
2023-01-18T19:27:34.922Z,4.93
2023-01-18T19:30:02.644Z,4.80
2023-01-18T19:32:30.368Z,5.07
2023-01-18T19:34:58.055Z,5.23
2023-01-18T19:37:27.191Z,5.02
2023-01-18T19:39:54.846Z,4.81
2023-01-18T19:42:22.482Z,5.11
2023-01-18T19:44:51.912Z,5.08
2023-01-18T19:47:19.680Z,4.62
2023-01-18T19:49:47.326Z,4.90
2023-01-18T19:52:15.141Z,5.07
2023-01-18T19:54:44.330Z,5.20
2023-01-18T19:57:12.655Z,5.18
2023-01-18T19:59:40.364Z,5.07
2023-01-18T20:02:08.405Z,4.79
2023-01-18T20:04:37.787Z,5.06
2023-01-18T20:07:05.922Z,5.04
2023-01-18T20:09:42.845Z,5.32
2023-01-18T20:12:13.331Z,4.90
2023-01-18T20:14:42.517Z,5.19
2023-01-18T20:17:10.518Z,5.18
2023-01-18T20:19:38.305Z,4.78
2023-01-18T20:22:05.990Z,5.21
2023-01-18T20:24:33.748Z,5.69
2023-01-18T20:27:14.885Z,5.26
2023-01-18T20:29:44.744Z,5.05
2023-01-18T20:32:16.715Z,5.09
2023-01-18T20:34:46.655Z,5.17
2023-01-18T20:37:15.573Z,4.69
2023-01-18T20:39:43.427Z,5.24
2023-01-18T20:42:11.342Z,5.64
2023-01-18T20:44:39.197Z,5.79
2023-01-18T20:47:08.230Z,5.10
2023-01-18T20:49:38.878Z,5.55
2023-01-18T20:52:07.092Z,5.30
2023-01-18T20:54:36.250Z,5.34
2023-01-18T20:57:05.430Z,5.02
2023-01-18T20:59:33.163Z,5.09
2023-01-18T21:02:01.541Z,5.06
2023-01-18T21:04:30.753Z,5.06
2023-01-18T21:06:58.822Z,5.22
2023-01-18T21:09:26.976Z,5.10
2023-01-18T21:11:54.645Z,5.46
2023-01-18T21:14:22.372Z,5.13
2023-01-18T21:16:50.110Z,5.70
2023-01-18T21:19:18.152Z,5.50
2023-01-18T21:21:47.289Z,5.48
2023-01-18T21:24:15.002Z,4.82
2023-01-18T21:26:42.658Z,5.01
2023-01-18T21:29:10.314Z,5.00
2023-01-18T21:31:40.068Z,4.86
2023-01-18T21:34:08.546Z,5.22
2023-01-18T21:36:36.228Z,5.49
2023-01-18T21:39:05.531Z,5.69
2023-01-18T21:41:50.664Z,5.88
2023-01-18T21:44:36.027Z,5.20
2023-01-18T21:47:03.737Z,5.43
2023-01-18T21:50:16.955Z,5.38
2023-01-18T21:52:55.980Z,5.51
2023-01-18T21:55:25.096Z,5.35
2023-01-18T21:58:06.641Z,5.31
2023-01-18T22:00:37.560Z,5.08
2023-01-18T22:03:05.625Z,5.15
2023-01-18T22:05:33.823Z,5.21
2023-01-18T22:08:01.863Z,4.57
2023-01-18T22:10:31.073Z,4.77
2023-01-18T22:12:58.819Z,4.60
2023-01-18T22:15:26.682Z,4.94
2023-01-18T22:17:54.402Z,4.50
2023-01-18T22:20:22.030Z,4.63
2023-01-18T22:22:50.439Z,4.43
2023-01-18T22:25:18.536Z,4.61
2023-01-18T22:27:48.108Z,4.52
2023-01-18T22:30:15.943Z,4.24
2023-01-18T22:32:43.644Z,4.46
2023-01-18T22:35:11.452Z,4.43
2023-01-18T22:37:39.174Z,5.08
2023-01-18T22:40:08.636Z,5.08
2023-01-18T22:42:36.409Z,4.86
2023-01-18T22:45:06.213Z,4.94
2023-01-18T22:47:33.914Z,4.97
2023-01-18T22:50:01.635Z,5.18
2023-01-18T22:52:29.364Z,4.87
2023-01-18T22:54:57.117Z,4.66
2023-01-18T22:57:24.850Z,5.04
2023-01-18T22:59:52.511Z,4.96
2023-01-18T23:02:21.775Z,4.45
2023-01-18T23:04:49.470Z,5.05
2023-01-18T23:07:18.762Z,4.72
2023-01-18T23:09:46.512Z,4.95
2023-01-18T23:12:14.220Z,4.96
2023-01-18T23:14:59.645Z,4.69
2023-01-18T23:17:42.219Z,5.13
2023-01-18T23:20:13.428Z,4.99
2023-01-18T23:22:41.190Z,4.91
2023-01-18T23:25:09.690Z,4.97
2023-01-18T23:27:37.326Z,4.40
2023-01-18T23:30:06.398Z,4.62
2023-01-18T23:32:37.220Z,4.32
2023-01-18T23:35:06.287Z,4.23
2023-01-18T23:37:34.135Z,4.13
2023-01-18T23:40:19.384Z,3.86
2023-01-18T23:43:04.761Z,4.61
2023-01-18T23:45:50.096Z,4.41
2023-01-18T23:48:37.737Z,3.33
2023-01-18T23:51:23.172Z,4.25
2023-01-18T23:54:08.434Z,4.23
2023-01-18T23:56:36.130Z,4.31
2023-01-18T23:59:04.171Z,4.58
